Amsterdam, Missouri
Current Conditions -  °F | °C
As of 11:53 PM on Monday 20 Oct 2014 (Local Time) from KOJC Reporting Station
Clear Clear  
Wind Chill: 52°   Ceiling: Unl
Heat Index: 52°   Visibility: 7mi
Dew Point: 45°   Wind: 5mph
Humidity: 77%   Direction: 230°SW
Pressure: 30.07"   Gusts: NA
Location:  38.35°N, 94.59°W
Report Text: KOJC 210453Z AUTO 23004KT 7SM CLR 11/07 A3007 RMK AO2 SLP179 T01110072
Loading
Personal Weather Stations






























Interactive Weather Map
Tropical Storm Tracking
New forecast layout! Learn more

10-Day Weather Forecast

Advertisements
Track Severe Weather on mobile